Airport View

Enter AWOS ICAO identifier for current METAR.

ex. KFNL

KGLS 191852Z 18014KT 10SM SCT021 32/26 A2987 RMK AO2 SLP116 T03220261

19 Jun 2019 19:38

Frequency: 119.275

Phone: 409-740-9248

Other Area AWOS: KXIH - KLVJ - KEFD - KAXH

TAF KGLS 191726Z 1918/2018 19013KT P6SM SCT020